Time;durP1;ratioP1;P1;durP2;ratioP2;P2;SDS_P1;SDS_P2;PMS_P1;PMS_P2;Temp;Humidity;BMP_temperature;BMP_pressure;BME280_temperature;BME280_humidity;BME280_pressure;Samples;Min_cycle;Max_cycle;Signal;HPM_P1;HPM_P2
2022/06/13 00:00:12;;;;;;;6.18;3.35;;;;;;;19.38;43.50;99250.00;5032686;28;20033;-63
2022/06/13 00:02:37;;;;;;;12.73;3.83;;;;;;;19.41;42.96;99266.41;5032898;28;20030;-62
2022/06/13 00:05:06;;;;;;;6.47;3.33;;;;;;;19.10;43.30;99208.00;5052866;28;20053;-62
2022/06/13 00:07:31;;;;;;;6.60;3.45;;;;;;;19.45;43.48;99260.03;5066837;28;20036;-63
2022/06/13 00:09:57;;;;;;;7.65;3.95;;;;;;;19.40;43.92;99253.38;5050183;28;20029;-63
2022/06/13 00:12:23;;;;;;;9.07;3.58;;;;;;;19.21;44.13;99256.34;5032600;28;20025;-62
2022/06/13 00:14:49;;;;;;;11.75;3.85;;;;;;;19.30;43.49;99250.50;5032542;28;20076;-62
2022/06/13 00:17:14;;;;;;;9.73;3.65;;;;;;;19.37;43.56;99245.69;5048059;28;20025;-63
2022/06/13 00:19:40;;;;;;;6.13;4.00;;;;;;;19.42;44.22;99247.06;5042961;28;20031;-63
2022/06/13 00:22:06;;;;;;;6.13;3.65;;;;;;;19.27;44.09;99243.66;5047650;28;20036;-62
2022/06/13 00:24:33;;;;;;;9.18;4.35;;;;;;;19.34;44.10;99248.50;5052391;28;20040;-62
2022/06/13 00:26:58;;;;;;;8.43;3.83;;;;;;;19.29;44.14;99243.56;5052339;28;20103;-62
2022/06/13 00:29:24;;;;;;;9.63;3.88;;;;;;;19.33;43.64;99246.84;5052359;28;20072;-62
2022/06/13 00:31:49;;;;;;;6.88;3.70;;;;;;;19.27;44.16;99235.78;5070457;28;20047;-62
2022/06/13 00:34:15;;;;;;;8.65;3.80;;;;;;;19.40;43.91;99240.25;5045476;28;20075;-62
2022/06/13 00:36:41;;;;;;;6.38;3.95;;;;;;;19.43;44.11;99238.25;5031662;28;20048;-63
2022/06/13 00:39:07;;;;;;;5.72;3.20;;;;;;;19.46;44.10;99237.22;5032077;28;20033;-64
2022/06/13 00:41:37;;;;;;;3.85;3.40;;;;;;;19.37;43.52;99222.03;5032273;28;20075;-63
2022/06/13 00:44:21;;;;;;;6.30;3.20;;;;;;;19.18;44.08;99204.03;5032036;28;20029;-62
2022/06/13 00:46:47;;;;;;;7.05;3.72;;;;;;;19.33;43.93;99226.69;5052303;28;20029;-62
2022/06/13 00:49:21;;;;;;;5.95;3.33;;;;;;;19.20;43.98;99217.94;5050731;28;20444;-62
2022/06/13 00:51:51;;;;;;;8.50;3.90;;;;;;;19.31;44.13;99241.66;5051612;28;20028;-63
2022/06/13 00:54:21;;;;;;;7.47;3.78;;;;;;;19.04;44.26;99181.31;5046862;28;20036;-62
2022/06/13 00:56:49;;;;;;;8.70;3.65;;;;;;;19.23;44.94;99233.47;5034407;28;20033;-63
2022/06/13 00:59:20;;;;;;;6.68;3.40;;;;;;;19.13;45.29;99197.28;5071908;28;20423;-63
2022/06/13 01:01:46;;;;;;;10.45;3.42;;;;;;;19.35;44.58;99227.41;5054592;28;20053;-62
2022/06/13 01:04:12;;;;;;;4.35;3.60;;;;;;;19.28;44.65;99229.59;5040150;28;20091;-63
2022/06/13 01:06:43;;;;;;;5.18;3.50;;;;;;;19.10;44.60;99215.88;5034804;28;20041;-62
2022/06/13 01:09:11;;;;;;;4.68;3.65;;;;;;;18.81;45.64;99191.44;5034851;28;20030;-62
2022/06/13 01:11:42;;;;;;;7.47;3.60;;;;;;;19.05;45.33;99204.81;5036000;28;20041;-63
2022/06/13 01:14:41;;;;;;;8.13;3.33;;;;;;;18.89;45.69;99194.47;5036266;28;20068;-62
2022/06/13 01:17:12;;;;;;;8.93;3.80;;;;;;;19.19;46.08;99231.97;5050972;28;20029;-62
2022/06/13 01:19:51;;;;;;;6.85;3.45;;;;;;;19.18;45.95;99228.50;5071977;28;20029;-63
2022/06/13 01:22:29;;;;;;;7.82;3.50;;;;;;;19.06;46.11;99222.25;5074277;28;20455;-62
2022/06/13 01:25:19;;;;;;;7.00;3.80;;;;;;;19.14;46.05;99230.50;5055732;28;20043;-63
2022/06/13 01:28:16;;;;;;;7.22;3.80;;;;;;;19.22;45.72;99229.16;5054458;28;20025;-62
2022/06/13 01:31:14;;;;;;;11.60;4.05;;;;;;;19.25;46.42;99236.81;5054509;28;20525;-63
2022/06/13 01:34:04;;;;;;;7.75;3.78;;;;;;;19.27;46.36;99232.34;5055420;28;20116;-63
2022/06/13 01:36:32;;;;;;;9.52;3.90;;;;;;;19.29;46.40;99225.19;5055650;28;20080;-63
2022/06/13 01:39:22;;;;;;;9.20;3.92;;;;;;;19.20;46.09;99231.88;5053672;28;20115;-63
2022/06/13 01:42:01;;;;;;;7.32;3.88;;;;;;;18.98;46.51;99229.78;5054147;28;20181;-63
2022/06/13 01:44:43;;;;;;;10.38;4.03;;;;;;;18.66;47.10;99177.53;5055233;28;20086;-64
2022/06/13 01:47:14;;;;;;;6.25;3.75;;;;;;;18.84;47.11;99222.78;5035685;28;20021;-62
2022/06/13 01:50:01;;;;;;;9.65;4.40;;;;;;;18.47;47.62;99172.63;5051798;28;20087;-61
2022/06/13 01:52:48;;;;;;;6.93;3.70;;;;;;;18.93;47.27;99219.59;5055174;28;20021;-62
2022/06/13 01:55:21;;;;;;;7.03;4.03;;;;;;;18.99;47.59;99220.97;5042300;28;20081;-63
2022/06/13 01:58:10;;;;;;;5.43;3.70;;;;;;;18.83;47.47;99191.38;5035274;28;20094;-63
2022/06/13 02:00:39;;;;;;;8.57;3.72;;;;;;;19.15;47.00;99226.06;5042525;28;20059;-62
2022/06/13 02:03:07;;;;;;;6.78;3.60;;;;;;;19.16;47.71;99224.31;5051902;28;20025;-63
2022/06/13 02:05:44;;;;;;;6.50;3.50;;;;;;;19.24;47.93;99219.38;5033720;28;20030;-63
2022/06/13 02:08:36;;;;;;;4.82;3.58;;;;;;;19.10;48.29;99207.16;5033854;28;20091;-63
2022/06/13 02:11:16;;;;;;;7.68;3.60;;;;;;;18.95;48.40;99180.13;5033583;28;20506;-63
2022/06/13 02:13:59;;;;;;;8.88;3.72;;;;;;;19.16;48.75;99226.94;5068907;28;20033;-63
2022/06/13 02:16:30;;;;;;;7.65;4.05;;;;;;;19.03;48.63;99182.25;5045583;28;20099;-63
2022/06/13 02:19:25;;;;;;;8.18;3.47;;;;;;;19.29;48.99;99227.81;5034950;28;20037;-63
2022/06/13 02:22:06;;;;;;;6.28;4.07;;;;;;;19.14;49.05;99216.53;5033883;28;20037;-63
2022/06/13 02:24:38;;;;;;;6.85;3.97;;;;;;;19.01;49.54;99177.13;5054528;28;20056;-64
2022/06/13 02:27:06;;;;;;;5.90;3.88;;;;;;;19.00;49.18;99179.81;5053476;28;20078;-64
2022/06/13 02:29:45;;;;;;;8.95;3.83;;;;;;;19.08;49.89;99174.91;5054526;28;20107;-64
2022/06/13 02:32:17;;;;;;;5.85;3.67;;;;;;;19.06;50.49;99167.13;5054454;28;20040;-63
2022/06/13 02:34:50;;;;;;;8.45;3.80;;;;;;;19.24;50.37;99198.38;5052982;28;20033;-64
2022/06/13 02:37:33;;;;;;;6.05;3.70;;;;;;;19.20;51.25;99181.16;5054275;28;20039;-64
2022/06/13 02:40:21;;;;;;;9.88;4.00;;;;;;;19.31;50.01;99226.78;5064157;28;20066;-63
2022/06/13 02:43:07;;;;;;;9.00;3.92;;;;;;;19.01;50.51;99168.38;5057073;28;20387;-63
2022/06/13 02:46:17;;;;;;;5.82;3.60;;;;;;;19.28;50.98;99216.47;5034073;28;20513;-64
2022/06/13 02:49:10;;;;;;;4.70;3.40;;;;;;;19.25;50.83;99206.19;5039336;28;20040;-64
2022/06/13 02:51:51;;;;;;;12.43;4.35;;;;;;;19.17;51.05;99183.97;5073018;28;20037;-63
2022/06/13 02:54:25;;;;;;;4.90;3.50;;;;;;;19.27;51.62;99203.44;5059846;28;20046;-63
2022/06/13 02:57:24;;;;;;;8.77;3.90;;;;;;;19.09;50.94;99164.31;5034020;28;20022;-64
2022/06/13 03:00:01;;;;;;;8.00;3.97;;;;;;;19.45;51.36;99204.88;5023273;28;20045;-63
2022/06/13 03:02:49;;;;;;;9.35;3.92;;;;;;;19.36;51.32;99205.47;5034068;28;20111;-63
2022/06/13 03:05:38;;;;;;;9.98;4.28;;;;;;;19.42;51.95;99217.34;5033969;28;20068;-63
2022/06/13 03:08:22;;;;;;;7.20;3.90;;;;;;;19.39;51.97;99201.78;5035632;28;20434;-63
2022/06/13 03:11:00;;;;;;;5.20;3.45;;;;;;;19.44;52.19;99190.03;5069087;28;20685;-63
2022/06/13 03:13:40;;;;;;;5.95;3.85;;;;;;;19.45;51.88;99188.25;5046217;28;20072;-63
2022/06/13 03:16:33;;;;;;;6.22;3.72;;;;;;;19.39;52.18;99186.03;5033684;28;20025;-63
2022/06/13 03:19:15;;;;;;;13.50;3.97;;;;;;;19.17;52.08;99134.09;5033606;28;20029;-64
2022/06/13 03:22:12;;;;;;;9.27;4.07;;;;;;;19.45;51.88;99181.22;5033665;28;20060;-63
2022/06/13 03:24:45;;;;;;;8.35;4.25;;;;;;;19.47;52.39;99183.75;5033221;28;20040;-64
2022/06/13 03:27:21;;;;;;;8.93;4.10;;;;;;;19.48;52.57;99177.53;5045192;28;20135;-64
2022/06/13 03:30:12;;;;;;;8.60;4.05;;;;;;;19.59;52.81;99182.91;5052180;28;20116;-64
2022/06/13 03:35:43;;;;;;;5.93;3.85;;;;;;;19.56;52.53;99167.38;5033315;28;20041;-64
2022/06/13 03:38:13;;;;;;;10.15;4.10;;;;;;;19.59;52.25;99182.09;5031681;28;20038;-64
2022/06/13 03:40:46;;;;;;;14.73;4.20;;;;;;;19.37;53.03;99136.25;5033410;28;20061;-64
2022/06/13 03:43:24;;;;;;;7.93;4.07;;;;;;;19.42;53.60;99128.06;5033007;28;20116;-64
2022/06/13 03:46:06;;;;;;;5.75;4.13;;;;;;;19.38;53.11;99123.94;5032922;28;20382;-63
2022/06/13 03:48:39;;;;;;;6.97;3.78;;;;;;;19.70;52.99;99161.19;5033254;28;20112;-64
2022/06/13 03:51:18;;;;;;;9.10;3.97;;;;;;;19.79;53.92;99168.47;5036280;28;20084;-64
2022/06/13 03:54:16;;;;;;;7.18;3.80;;;;;;;19.92;53.87;99168.47;5068786;28;20036;-63
2022/06/13 03:57:03;;;;;;;7.95;3.75;;;;;;;20.06;52.66;99175.41;5026813;28;20037;-64
2022/06/13 03:59:41;;;;;;;10.25;4.57;;;;;;;19.96;52.41;99184.88;5048799;28;20358;-63
2022/06/13 04:02:11;;;;;;;10.10;4.10;;;;;;;19.99;52.32;99167.13;5052617;28;20516;-63
2022/06/13 04:04:44;;;;;;;10.32;4.15;;;;;;;20.06;52.05;99164.06;5052806;28;20025;-64
2022/06/13 04:07:10;;;;;;;9.10;4.20;;;;;;;19.87;52.60;99157.44;5046237;28;20037;-63
2022/06/13 04:09:40;;;;;;;10.40;4.25;;;;;;;19.81;52.40;99129.78;5049453;28;20048;-63
2022/06/13 04:12:12;;;;;;;7.35;3.97;;;;;;;20.06;52.73;99171.94;5051992;28;20029;-64
2022/06/13 04:14:37;;;;;;;9.10;4.13;;;;;;;20.27;52.74;99172.25;5049322;28;20104;-65
2022/06/13 04:17:15;;;;;;;10.13;3.83;;;;;;;20.34;52.75;99169.06;5051865;28;20116;-64
2022/06/13 04:19:47;;;;;;;8.18;3.92;;;;;;;20.49;52.91;99169.78;5049788;28;20043;-64
2022/06/13 04:22:39;;;;;;;11.43;4.20;;;;;;;20.58;52.93;99159.53;5051841;28;20029;-63
2022/06/13 04:25:13;;;;;;;8.00;4.05;;;;;;;20.57;53.26;99150.81;5026757;28;20332;-63
2022/06/13 04:28:01;;;;;;;10.18;4.20;;;;;;;20.58;53.17;99154.28;5048359;28;20079;-62
2022/06/13 04:30:30;;;;;;;9.07;4.03;;;;;;;20.33;52.89;99106.06;5046042;28;20048;-63
2022/06/13 04:33:06;;;;;;;7.85;4.05;;;;;;;20.43;52.97;99112.31;5051645;28;20021;-63
2022/06/13 04:35:34;;;;;;;9.68;4.10;;;;;;;20.67;52.97;99148.38;5051708;28;20491;-63
2022/06/13 04:38:03;;;;;;;9.80;4.10;;;;;;;20.71;52.93;99162.16;5051466;28;20047;-63
2022/06/13 04:40:30;;;;;;;11.98;3.92;;;;;;;20.72;53.42;99151.50;5048478;28;20031;-63
2022/06/13 04:42:57;;;;;;;4.57;4.05;;;;;;;21.03;52.57;99155.41;5046114;28;20024;-63
2022/06/13 04:45:31;;;;;;;7.35;3.92;;;;;;;20.73;53.18;99110.25;5052158;28;20716;-63
2022/06/13 04:47:57;;;;;;;10.93;4.20;;;;;;;21.06;53.10;99143.78;5048330;28;20028;-63
2022/06/13 04:50:34;;;;;;;8.85;4.10;;;;;;;20.98;53.52;99098.78;5050011;28;20020;-63
2022/06/13 04:53:04;;;;;;;7.72;4.30;;;;;;;21.37;54.13;99166.06;5046823;28;20060;-63
2022/06/13 04:55:41;;;;;;;9.38;4.30;;;;;;;21.48;53.52;99154.72;5048934;28;20029;-63
2022/06/13 04:58:35;;;;;;;9.57;4.32;;;;;;;21.52;52.85;99153.56;5047598;28;20420;-62
2022/06/13 05:01:19;;;;;;;8.82;4.30;;;;;;;21.72;52.92;99153.84;5051698;28;20037;-62
2022/06/13 05:03:47;;;;;;;7.88;4.68;;;;;;;21.46;53.74;99155.78;5042009;28;20092;-63
2022/06/13 05:06:24;;;;;;;9.38;4.35;;;;;;;21.73;52.52;99147.59;5050091;28;20021;-63
2022/06/13 05:09:01;;;;;;;7.38;3.70;;;;;;;21.54;51.94;99112.13;5048746;28;20035;-63
2022/06/13 05:11:43;;;;;;;7.35;4.53;;;;;;;22.00;52.21;99144.63;5051470;28;20029;-63
2022/06/13 05:14:18;;;;;;;7.90;4.68;;;;;;;22.21;51.77;99141.28;5049015;28;20033;-63
2022/06/13 05:16:59;;;;;;;10.02;4.47;;;;;;;22.38;51.78;99151.38;5031672;28;20385;-64
2022/06/13 05:20:02;;;;;;;8.10;3.78;;;;;;;22.62;51.77;99149.53;5049864;28;20028;-64
2022/06/13 05:22:37;;;;;;;8.32;4.00;;;;;;;22.75;51.43;99156.34;5038604;28;20382;-63
2022/06/13 05:25:14;;;;;;;9.50;4.45;;;;;;;22.91;51.32;99149.81;5049690;28;20036;-62
2022/06/13 05:27:40;;;;;;;7.55;3.92;;;;;;;23.00;50.87;99154.38;5050090;28;20032;-62
2022/06/13 05:30:06;;;;;;;10.68;4.63;;;;;;;23.01;51.93;99148.09;5052633;28;20078;-63
2022/06/13 05:32:32;;;;;;;7.88;3.97;;;;;;;23.13;51.59;99148.94;5051601;28;20039;-64
2022/06/13 05:34:57;;;;;;;8.70;4.25;;;;;;;23.23;51.33;99155.13;5049220;28;20041;-63
2022/06/13 05:37:24;;;;;;;8.98;4.10;;;;;;;23.07;51.50;99154.66;5050928;28;20108;-63
2022/06/13 05:39:49;;;;;;;10.48;4.40;;;;;;;23.23;52.07;99157.78;5048662;28;20040;-63
2022/06/13 05:42:15;;;;;;;6.53;4.40;;;;;;;23.15;49.93;99144.34;5052175;28;20032;-62
2022/06/13 05:44:41;;;;;;;7.65;4.80;;;;;;;23.37;50.91;99139.91;5050766;28;20028;-63
2022/06/13 05:47:18;;;;;;;7.50;3.97;;;;;;;23.48;51.03;99152.25;5048563;28;20053;-63
2022/06/13 05:49:45;;;;;;;9.38;4.40;;;;;;;23.50;51.85;99140.59;5046938;28;20083;-62
2022/06/13 05:52:11;;;;;;;6.22;3.97;;;;;;;23.61;51.05;99147.59;5052116;28;20049;-62
2022/06/13 05:54:38;;;;;;;7.28;4.00;;;;;;;23.81;51.29;99142.41;5052031;28;20025;-62
2022/06/13 05:57:04;;;;;;;9.98;5.10;;;;;;;23.85;51.23;99149.13;5055884;28;20032;-63
2022/06/13 05:59:30;;;;;;;10.35;4.75;;;;;;;23.67;50.89;99151.53;5054010;28;20102;-63
2022/06/13 06:01:56;;;;;;;8.80;4.82;;;;;;;23.52;50.72;99138.63;5054555;28;20470;-63
2022/06/13 06:04:21;;;;;;;9.55;4.78;;;;;;;23.56;50.75;99140.06;5046273;28;20021;-63
2022/06/13 06:06:47;;;;;;;7.95;4.82;;;;;;;23.47;51.17;99146.09;5049893;28;20060;-63
2022/06/13 06:09:14;;;;;;;11.45;4.63;;;;;;;23.52;51.89;99138.63;5050062;28;20029;-64
2022/06/13 06:11:40;;;;;;;12.90;4.97;;;;;;;23.66;51.88;99139.25;5050974;28;20426;-63
2022/06/13 06:14:06;;;;;;;14.95;5.40;;;;;;;23.71;51.82;99137.91;5055169;28;20029;-63
2022/06/13 06:16:33;;;;;;;6.25;3.80;;;;;;;23.80;51.30;99136.31;5055125;28;20017;-63
2022/06/13 06:18:58;;;;;;;6.43;4.38;;;;;;;23.85;51.26;99126.16;5052703;28;20021;-64
2022/06/13 06:21:24;;;;;;;9.65;6.78;;;;;;;23.68;51.33;99130.22;5054099;28;20017;-63
2022/06/13 06:23:50;;;;;;;7.93;4.63;;;;;;;23.82;52.13;99126.41;5053908;28;20104;-62
2022/06/13 06:26:19;;;;;;;13.13;5.13;;;;;;;23.90;52.25;99126.63;5053817;28;20121;-64
2022/06/13 06:28:45;;;;;;;7.13;4.43;;;;;;;24.01;52.53;99127.50;5051737;28;20052;-63
2022/06/13 06:31:11;;;;;;;10.40;4.70;;;;;;;24.00;53.60;99129.31;5051714;28;20055;-63
2022/06/13 06:33:36;;;;;;;15.95;5.10;;;;;;;24.12;52.04;99125.59;5056020;28;20052;-63
2022/06/13 06:36:03;;;;;;;9.13;4.43;;;;;;;24.13;52.89;99126.44;5053605;28;20064;-63
2022/06/13 06:38:29;;;;;;;10.15;5.03;;;;;;;24.18;52.03;99126.88;5052292;28;20044;-63
2022/06/13 06:40:55;;;;;;;10.38;4.50;;;;;;;24.13;51.56;99121.16;5056034;28;20053;-63
2022/06/13 06:43:21;;;;;;;10.90;4.63;;;;;;;24.07;52.32;99127.81;5051336;28;20048;-63
2022/06/13 06:45:47;;;;;;;8.60;4.40;;;;;;;24.22;51.60;99128.28;5053522;28;20067;-63
2022/06/13 06:48:24;;;;;;;10.07;5.10;;;;;;;23.91;53.63;99117.75;5053730;28;20505;-63
2022/06/13 06:50:51;;;;;;;9.18;4.55;;;;;;;24.14;53.59;99125.47;5052181;28;20035;-63
2022/06/13 06:53:19;;;;;;;8.05;4.57;;;;;;;24.16;52.74;99118.25;5053070;28;20025;-63
2022/06/13 07:01:16;;;;;;;6.88;4.55;;;;;;;24.09;53.85;99082.72;5050168;28;20028;-64
2022/06/13 07:03:42;;;;;;;5.03;4.20;;;;;;;24.17;53.52;99090.81;5048338;28;20029;-62
2022/06/13 07:06:08;;;;;;;11.73;4.80;;;;;;;24.21;53.87;99129.25;5052147;28;20060;-63
2022/06/13 07:08:36;;;;;;;6.70;4.55;;;;;;;24.44;53.50;99127.25;5052456;28;20033;-63
2022/06/13 07:13:48;;;;;;;8.95;4.25;;;;;;;24.35;54.86;99127.22;5049369;28;20028;-63
2022/06/13 07:16:14;;;;;;;4.78;4.10;;;;;;;24.24;54.22;99131.66;5055041;28;20029;-63
2022/06/13 07:18:41;;;;;;;6.43;4.55;;;;;;;24.28;54.59;99127.75;5047055;28;20021;-63
2022/06/13 07:21:08;;;;;;;5.78;4.20;;;;;;;24.28;54.42;99116.31;5052148;28;20055;-64
2022/06/13 07:23:34;;;;;;;6.43;4.40;;;;;;;24.19;55.17;99131.19;5052088;28;20465;-63
2022/06/13 07:25:59;;;;;;;9.13;4.20;;;;;;;24.08;54.34;99126.00;5052723;28;20043;-63
2022/06/13 07:28:25;;;;;;;6.32;3.83;;;;;;;24.13;54.12;99115.88;5050930;28;20109;-63
2022/06/13 07:30:51;;;;;;;7.97;3.95;;;;;;;24.04;53.61;99121.94;5050787;28;20561;-63
2022/06/13 07:33:17;;;;;;;6.50;3.75;;;;;;;24.06;53.82;99127.97;5050657;28;20021;-62
2022/06/13 07:35:43;;;;;;;5.57;3.88;;;;;;;23.88;53.85;99128.56;5052142;28;20044;-63
2022/06/13 07:38:16;;;;;;;7.82;4.47;;;;;;;23.92;54.68;99124.69;5050386;28;20398;-63
2022/06/13 07:40:46;;;;;;;8.27;4.00;;;;;;;23.86;54.17;99119.91;5049623;28;20025;-62
2022/06/13 07:43:25;;;;;;;7.97;3.63;;;;;;;24.01;54.76;99117.75;5050498;28;20128;-63
2022/06/13 07:45:51;;;;;;;5.20;3.88;;;;;;;24.02;54.21;99124.72;5051785;28;20033;-63
2022/06/13 07:48:17;;;;;;;6.05;3.90;;;;;;;24.09;54.53;99125.03;5052017;28;20036;-63
2022/06/13 07:50:43;;;;;;;4.78;4.00;;;;;;;24.13;54.70;99124.63;5052172;28;20020;-63
2022/06/13 07:53:08;;;;;;;9.00;4.75;;;;;;;24.00;54.48;99123.19;5051588;28;20355;-63
2022/06/13 07:55:34;;;;;;;6.07;4.65;;;;;;;24.17;54.58;99122.56;5051676;28;20666;-63
2022/06/13 07:58:00;;;;;;;7.63;4.45;;;;;;;24.12;53.97;99128.25;5051836;28;20082;-64
2022/06/13 08:00:30;;;;;;;5.38;4.45;;;;;;;23.89;54.35;99108.25;5052130;28;20107;-63
2022/06/13 08:02:58;;;;;;;6.53;4.27;;;;;;;24.23;54.54;99122.03;5052350;28;20035;-62
2022/06/13 08:05:23;;;;;;;6.35;4.25;;;;;;;24.40;54.67;99124.97;5050636;28;20032;-63
2022/06/13 08:07:49;;;;;;;6.93;4.28;;;;;;;24.56;54.30;99105.94;5049242;28;20025;-63
2022/06/13 08:10:15;;;;;;;4.72;4.30;;;;;;;24.76;53.81;99112.94;5051843;28;20028;-63
2022/06/13 08:12:43;;;;;;;7.28;4.95;;;;;;;24.60;53.42;99113.50;5052046;28;20033;-63
2022/06/13 08:15:09;;;;;;;8.82;4.18;;;;;;;24.85;53.63;99110.47;5048367;28;20025;-63
2022/06/13 08:17:35;;;;;;;7.15;4.47;;;;;;;24.95;52.88;99106.00;5052096;28;20025;-63
2022/06/13 08:20:01;;;;;;;5.53;4.10;;;;;;;24.85;52.45;99103.34;5051699;28;20039;-63
2022/06/13 08:22:26;;;;;;;5.03;4.00;;;;;;;24.98;53.14;99103.06;5051882;28;20512;-63
2022/06/13 08:24:52;;;;;;;6.95;4.22;;;;;;;24.81;50.32;99105.44;5052139;28;20040;-64
2022/06/13 08:27:17;;;;;;;8.65;3.85;;;;;;;24.58;50.62;99096.88;5051981;28;20474;-64
2022/06/13 08:29:43;;;;;;;6.82;3.90;;;;;;;24.64;50.31;99092.84;5051913;28;20020;-63
2022/06/13 08:32:09;;;;;;;9.98;3.70;;;;;;;24.51;51.51;99090.44;5046254;28;20086;-62
2022/06/13 08:34:35;;;;;;;7.70;4.20;;;;;;;24.15;50.06;99091.91;5048765;28;20644;-63
2022/06/13 08:37:00;;;;;;;6.72;3.70;;;;;;;24.29;50.81;99089.72;5054372;28;20045;-63
2022/06/13 08:39:26;;;;;;;4.78;4.15;;;;;;;24.17;51.12;99089.97;5048740;28;20096;-63
2022/06/13 08:42:19;;;;;;;7.95;4.30;;;;;;;24.23;51.63;99089.44;5051622;28;20017;-63
2022/06/13 08:44:54;;;;;;;6.68;3.70;;;;;;;24.08;53.04;99094.25;5050887;28;20017;-63
2022/06/13 08:47:42;;;;;;;7.72;4.10;;;;;;;24.02;54.78;99086.88;5049497;28;20033;-63
2022/06/13 08:50:34;;;;;;;6.53;3.83;;;;;;;23.81;54.20;99090.34;5047482;28;20025;-62
2022/06/13 08:53:06;;;;;;;5.00;4.20;;;;;;;23.72;54.29;99085.88;5047634;28;20032;-63
2022/06/13 08:55:47;;;;;;;9.55;4.45;;;;;;;23.79;55.26;99087.00;5053858;28;20089;-63
2022/06/13 08:58:18;;;;;;;9.87;4.73;;;;;;;23.54;54.77;99080.34;5046681;28;20020;-63
2022/06/13 09:00:55;;;;;;;6.20;4.40;;;;;;;23.58;56.65;99063.25;5050094;28;20072;-62
2022/06/13 09:03:30;;;;;;;12.55;4.88;;;;;;;23.59;54.24;99057.84;5053432;28;20046;-63
2022/06/13 09:06:09;;;;;;;11.35;4.60;;;;;;;23.77;53.87;99094.22;5072162;28;20024;-62
2022/06/13 09:09:12;;;;;;;9.50;4.43;;;;;;;23.78;54.64;99078.22;5071754;28;20034;-63
2022/06/13 09:12:02;;;;;;;7.75;4.22;;;;;;;23.87;56.13;99078.44;5060167;28;20068;-62
2022/06/13 09:14:31;;;;;;;6.45;5.10;;;;;;;24.03;54.69;99083.22;5032752;28;20025;-62
2022/06/13 09:17:11;;;;;;;9.85;3.95;;;;;;;23.56;53.42;99036.94;5031226;28;20116;-63
2022/06/13 09:19:41;;;;;;;9.77;3.85;;;;;;;23.76;53.24;99037.88;5031215;28;20043;-63
2022/06/13 09:22:54;;;;;;;8.68;4.25;;;;;;;24.16;54.00;99073.25;5031654;28;20057;-63
2022/06/13 09:25:45;;;;;;;3.72;3.30;;;;;;;24.16;53.70;99078.53;5010899;28;20038;-63
2022/06/13 09:28:39;;;;;;;5.72;3.65;;;;;;;23.75;52.58;99028.25;5047973;28;20116;-63
2022/06/13 09:31:13;;;;;;;5.80;3.85;;;;;;;24.05;52.62;99063.59;5045103;28;20046;-63
2022/06/13 09:34:10;;;;;;;6.60;3.45;;;;;;;24.27;52.33;99069.66;5050861;28;20045;-63
2022/06/13 09:36:50;;;;;;;12.48;4.05;;;;;;;24.24;53.68;99065.47;5035179;28;20057;-62
2022/06/13 09:39:18;;;;;;;4.70;3.50;;;;;;;24.14;52.16;99064.59;5033858;28;20029;-63
2022/06/13 09:41:56;;;;;;;4.28;3.50;;;;;;;24.25;52.51;99067.13;5036748;28;20025;-64
2022/06/13 09:44:27;;;;;;;4.00;3.60;;;;;;;24.45;52.57;99067.19;5054690;28;20099;-63
2022/06/13 09:47:02;;;;;;;6.78;3.97;;;;;;;24.32;52.09;99063.97;5067756;28;20040;-63
2022/06/13 09:49:36;;;;;;;7.85;3.75;;;;;;;24.24;52.23;99060.19;5053223;28;20041;-63
2022/06/13 09:52:29;;;;;;;5.85;3.70;;;;;;;24.29;52.61;99065.06;5049751;28;20020;-64
2022/06/13 09:55:00;;;;;;;5.47;3.80;;;;;;;24.38;51.93;99072.19;5054082;28;20098;-64
2022/06/13 09:57:41;;;;;;;8.10;4.03;;;;;;;24.34;52.16;99052.25;5021616;28;20079;-63
2022/06/13 10:00:31;;;;;;;6.50;5.18;;;;;;;24.31;52.33;99063.09;5075213;28;20549;-63
2022/06/13 10:03:18;;;;;;;6.90;4.30;;;;;;;24.24;52.00;99046.97;5055091;28;20037;-63
2022/06/13 10:06:25;;;;;;;6.25;4.30;;;;;;;24.32;52.20;99062.16;5034905;28;20036;-63
2022/06/13 10:09:03;;;;;;;7.65;4.28;;;;;;;24.43;53.22;99055.91;5022234;28;20567;-63
2022/06/13 10:12:12;;;;;;;11.23;3.67;;;;;;;24.25;52.56;99051.25;5035020;28;20482;-62
2022/06/13 10:14:41;;;;;;;6.13;4.07;;;;;;;24.28;52.23;99058.09;5051845;28;20033;-63
2022/06/13 10:17:09;;;;;;;5.95;3.67;;;;;;;24.18;52.67;99054.59;5054135;28;20041;-62
2022/06/13 10:20:08;;;;;;;4.70;3.00;;;;;;;24.11;52.37;99046.34;5054766;28;20355;-63
2022/06/13 10:23:06;;;;;;;5.35;3.38;;;;;;;23.93;52.30;99012.63;5057047;28;20036;-63
2022/06/13 10:25:52;;;;;;;5.47;3.55;;;;;;;24.23;52.69;99037.34;5054397;28;20035;-63
2022/06/13 10:28:42;;;;;;;6.88;3.50;;;;;;;24.23;52.80;99037.34;5045364;28;20482;-63
2022/06/13 10:31:40;;;;;;;7.90;4.00;;;;;;;24.01;52.60;98992.59;5034489;28;20022;-63
2022/06/13 10:34:47;;;;;;;11.50;3.85;;;;;;;24.20;53.44;99039.41;5034320;28;20060;-63
2022/06/13 10:37:44;;;;;;;14.15;4.35;;;;;;;24.20;53.98;99048.19;5022491;28;20098;-62
2022/06/13 10:40:10;;;;;;;5.90;4.55;;;;;;;24.06;54.68;99046.75;5053714;28;20424;-63
2022/06/13 10:42:38;;;;;;;6.10;4.05;;;;;;;24.15;55.23;99055.69;5057763;28;20082;-63
2022/06/13 10:45:10;;;;;;;6.10;3.53;;;;;;;23.90;55.89;99049.94;5073035;28;20029;-64
2022/06/13 10:48:00;;;;;;;7.57;3.92;;;;;;;23.98;56.75;99045.78;5054369;28;20457;-63
2022/06/13 10:50:29;;;;;;;6.00;3.30;;;;;;;23.82;56.24;99047.06;5052555;28;20033;-63
2022/06/13 10:53:02;;;;;;;6.63;3.58;;;;;;;23.51;58.09;99012.72;5054042;28;20100;-64
2022/06/13 10:55:34;;;;;;;3.60;3.30;;;;;;;23.80;58.33;99046.38;5043464;28;20056;-63
2022/06/13 10:58:12;;;;;;;6.03;3.80;;;;;;;23.99;58.35;99047.44;5033975;28;20029;-63
2022/06/13 11:00:39;;;;;;;4.15;3.75;;;;;;;23.91;57.87;99035.75;5037717;28;20029;-63
2022/06/13 11:03:11;;;;;;;5.57;3.80;;;;;;;24.28;57.50;99031.63;5053846;28;20028;-64
2022/06/13 11:05:57;;;;;;;7.70;3.65;;;;;;;23.87;55.42;98999.94;5033740;28;20021;-63
2022/06/13 11:08:23;;;;;;;6.22;3.42;;;;;;;24.16;56.17;99036.22;5068619;28;20435;-63
2022/06/13 11:11:19;;;;;;;4.43;3.30;;;;;;;24.06;56.07;98999.16;5047234;28;20060;-63
2022/06/13 11:13:53;;;;;;;7.30;3.47;;;;;;;24.27;56.22;99016.72;5032212;28;20477;-63
2022/06/13 11:22:37;;;;;;;6.15;3.30;;;;;;;24.09;54.84;98985.63;5034074;28;20037;-63
2022/06/13 11:25:17;;;;;;;4.43;4.00;;;;;;;24.35;55.85;99030.09;5060407;28;20051;-64
2022/06/13 11:27:47;;;;;;;4.47;3.42;;;;;;;24.26;55.05;98993.88;5072167;28;20072;-63
2022/06/13 11:30:27;;;;;;;6.70;3.92;;;;;;;24.49;55.46;99025.41;5073597;28;20040;-63
2022/06/13 11:33:24;;;;;;;4.03;3.10;;;;;;;24.37;58.35;99027.31;5073592;28;20103;-63
2022/06/13 11:35:56;;;;;;;7.65;3.80;;;;;;;24.29;55.73;99020.91;5047557;28;20103;-63
2022/06/13 11:38:37;;;;;;;9.27;3.83;;;;;;;23.82;56.36;98970.38;5070497;28;20120;-63
2022/06/13 11:41:21;;;;;;;6.23;3.83;;;;;;;23.91;57.27;99005.78;5043338;28;20036;-63
2022/06/13 11:43:58;;;;;;;6.78;3.45;;;;;;;23.61;55.06;98970.44;5057012;28;20070;-63
2022/06/13 11:46:23;;;;;;;4.07;3.47;;;;;;;23.99;55.16;99007.78;5060842;28;20021;-63
2022/06/13 11:48:50;;;;;;;6.40;3.40;;;;;;;24.05;54.59;99004.56;5051519;28;20025;-63
2022/06/13 11:51:22;;;;;;;4.07;3.33;;;;;;;23.88;53.41;98995.47;5052681;28;20039;-63
2022/06/13 11:53:49;;;;;;;4.68;3.00;;;;;;;24.01;54.24;99017.22;5052933;28;20154;-63
2022/06/13 11:56:30;;;;;;;5.80;3.10;;;;;;;23.75;53.50;98967.44;5036118;28;20022;-62
2022/06/13 11:59:00;;;;;;;6.60;3.00;;;;;;;24.02;53.20;99012.78;5046648;28;20040;-62
2022/06/13 12:01:31;;;;;;;4.00;3.40;;;;;;;23.77;52.76;98972.59;5043482;28;20029;-62
2022/06/13 12:04:14;;;;;;;3.80;3.08;;;;;;;23.79;53.68;98976.78;5032651;28;20064;-63
2022/06/13 12:06:49;;;;;;;3.05;2.70;;;;;;;24.02;52.91;99016.25;5032421;28;20067;-63
2022/06/13 12:09:31;;;;;;;5.47;2.92;;;;;;;24.00;52.95;99009.41;5032695;28;20083;-63
2022/06/13 12:12:07;;;;;;;3.42;2.67;;;;;;;23.70;52.73;98982.03;5032678;28;20057;-63
2022/06/13 12:14:40;;;;;;;7.07;3.00;;;;;;;23.91;52.87;99017.22;5051056;28;20033;-63
2022/06/13 12:17:19;;;;;;;3.95;2.80;;;;;;;23.61;54.49;98978.38;5067179;28;20021;-63
2022/06/13 12:19:45;;;;;;;3.65;3.03;;;;;;;23.91;53.67;99027.81;5071067;28;20474;-63
2022/06/13 12:22:32;;;;;;;6.55;3.22;;;;;;;23.63;54.69;98978.25;5057707;28;20080;-63
2022/06/13 12:25:24;;;;;;;3.50;3.20;;;;;;;23.88;54.44;99022.75;5052297;28;20396;-64